createdAt,value
2022-08-17T00:02:26.399Z,21.00
2022-08-17T00:04:55.414Z,21.00
2022-08-17T00:07:22.924Z,21.00
2022-08-17T00:09:49.977Z,20.90
2022-08-17T00:12:42.907Z,20.90
2022-08-17T00:15:10.418Z,20.90
2022-08-17T00:17:38.306Z,20.90
2022-08-17T00:20:06.284Z,20.90
2022-08-17T00:22:36.298Z,20.90
2022-08-17T00:25:08.507Z,20.80
2022-08-17T00:27:36.078Z,20.70
2022-08-17T00:30:05.825Z,20.70
2022-08-17T00:33:14.163Z,20.70
2022-08-17T00:35:33.862Z,20.70
2022-08-17T00:38:01.174Z,20.70
2022-08-17T00:40:39.794Z,20.70
2022-08-17T00:43:41.322Z,20.70
2022-08-17T00:46:20.476Z,20.60
2022-08-17T00:48:49.081Z,20.60
2022-08-17T00:51:43.825Z,20.60
2022-08-17T00:54:43.781Z,20.60
2022-08-17T00:57:23.204Z,20.50
2022-08-17T01:00:02.691Z,20.10
2022-08-17T01:02:36.686Z,20.50
2022-08-17T01:05:18.621Z,20.50
2022-08-17T01:07:47.719Z,20.60
2022-08-17T01:10:58.269Z,20.50
2022-08-17T01:13:04.410Z,20.50
2022-08-17T01:15:34.999Z,20.50
2022-08-17T01:18:02.722Z,20.40
2022-08-17T01:20:29.785Z,20.50
2022-08-17T01:22:57.220Z,20.50
2022-08-17T01:25:24.886Z,20.50
2022-08-17T01:27:51.957Z,20.40
2022-08-17T01:30:57.297Z,20.40
2022-08-17T01:33:06.395Z,20.40
2022-08-17T01:35:33.783Z,20.30
2022-08-17T01:38:00.812Z,20.40
2022-08-17T01:40:37.487Z,20.30
2022-08-17T01:43:15.861Z,20.20
2022-08-17T01:45:48.978Z,20.20
2022-08-17T01:48:33.472Z,20.20
2022-08-17T01:51:01.315Z,20.20
2022-08-17T01:53:34.913Z,20.10
2022-08-17T01:56:07.876Z,20.00
2022-08-17T01:58:36.175Z,20.00
2022-08-17T02:01:05.440Z,20.00
2022-08-17T02:03:34.498Z,20.00
2022-08-17T02:06:02.457Z,20.00
2022-08-17T02:08:38.984Z,19.90
2022-08-17T02:11:11.390Z,19.90
2022-08-17T02:13:39.489Z,19.70
2022-08-17T02:16:06.835Z,19.70
2022-08-17T02:18:33.969Z,19.70
2022-08-17T02:21:01.367Z,19.70
2022-08-17T02:23:32.222Z,19.80
2022-08-17T02:26:01.057Z,19.70
2022-08-17T02:28:28.983Z,19.80
2022-08-17T02:31:01.817Z,19.70
2022-08-17T02:33:41.680Z,19.70
2022-08-17T02:36:12.757Z,19.70
2022-08-17T02:38:41.095Z,19.70
2022-08-17T02:41:09.203Z,19.70
2022-08-17T02:43:36.239Z,19.70
2022-08-17T02:46:03.895Z,19.70
2022-08-17T02:48:32.040Z,19.70
2022-08-17T02:51:00.730Z,19.70
2022-08-17T02:53:35.512Z,19.60
2022-08-17T02:56:04.169Z,19.60
2022-08-17T02:58:34.593Z,19.60
2022-08-17T03:01:05.441Z,19.60
2022-08-17T03:03:33.252Z,19.60
2022-08-17T03:06:00.984Z,19.60
2022-08-17T03:08:28.212Z,19.60
2022-08-17T03:10:56.011Z,19.60
2022-08-17T03:13:23.466Z,19.60
2022-08-17T03:15:50.799Z,19.50
2022-08-17T03:18:25.066Z,19.50
2022-08-17T03:20:58.466Z,19.30
2022-08-17T03:23:27.305Z,19.30
2022-08-17T03:25:55.639Z,19.30
2022-08-17T03:28:23.644Z,19.40
2022-08-17T03:30:51.766Z,19.30
2022-08-17T03:33:19.860Z,19.30
2022-08-17T03:35:47.425Z,19.30
2022-08-17T03:38:15.937Z,19.20
2022-08-17T03:40:59.147Z,19.20
2022-08-17T03:43:31.992Z,19.30
2022-08-17T03:46:01.273Z,19.30
2022-08-17T03:48:28.914Z,19.30
2022-08-17T03:50:57.351Z,19.30
2022-08-17T03:53:24.360Z,19.30
2022-08-17T03:55:51.765Z,19.20
2022-08-17T03:58:18.849Z,19.30
2022-08-17T04:00:45.961Z,19.20
2022-08-17T04:03:13.700Z,19.20
2022-08-17T04:05:41.451Z,19.20
2022-08-17T04:08:09.388Z,19.30
2022-08-17T04:10:41.386Z,19.30
2022-08-17T04:13:12.916Z,19.50
2022-08-17T04:15:40.436Z,19.60
2022-08-17T04:18:07.721Z,19.70
2022-08-17T04:20:38.143Z,19.70
2022-08-17T04:23:14.419Z,19.80
2022-08-17T04:25:47.319Z,19.90
2022-08-17T04:28:16.234Z,20.00
2022-08-17T04:30:45.245Z,20.20
2022-08-17T04:33:16.612Z,20.40
2022-08-17T04:35:50.871Z,20.50
2022-08-17T04:38:23.227Z,20.70
2022-08-17T04:40:51.380Z,20.80
2022-08-17T04:43:21.758Z,21.00
2022-08-17T04:45:57.864Z,21.20
2022-08-17T04:48:29.801Z,21.40
2022-08-17T04:51:07.534Z,21.50
2022-08-17T04:53:35.194Z,21.70
2022-08-17T04:56:02.274Z,21.90
2022-08-17T04:58:29.596Z,22.10
2022-08-17T05:00:56.909Z,22.30
2022-08-17T05:03:23.992Z,22.50
2022-08-17T05:05:51.195Z,22.60
2022-08-17T05:08:19.841Z,22.80
2022-08-17T05:10:47.733Z,23.00
2022-08-17T05:13:25.866Z,23.10
2022-08-17T05:15:59.584Z,23.40
2022-08-17T05:18:30.049Z,23.60
2022-08-17T05:20:57.535Z,23.80
2022-08-17T05:23:37.830Z,24.00
2022-08-17T05:26:21.956Z,24.20
2022-08-17T05:28:56.978Z,24.40
2022-08-17T05:31:26.095Z,24.70
2022-08-17T05:33:53.173Z,24.90
2022-08-17T05:36:43.063Z,25.10
2022-08-17T05:39:07.749Z,25.30
2022-08-17T05:41:34.927Z,25.50
2022-08-17T05:44:05.324Z,25.80
2022-08-17T05:46:40.163Z,26.00
2022-08-17T05:49:08.548Z,26.20
2022-08-17T05:51:44.243Z,26.50
2022-08-17T05:54:29.926Z,26.70
2022-08-17T05:57:09.114Z,26.90
2022-08-17T05:59:44.519Z,27.20
2022-08-17T06:02:43.065Z,27.50
2022-08-17T06:05:29.021Z,27.70
2022-08-17T06:08:18.863Z,28.00
2022-08-17T06:11:04.743Z,28.20
2022-08-17T06:13:41.320Z,28.60
2022-08-17T06:16:33.246Z,28.90
2022-08-17T06:19:05.037Z,29.20
2022-08-17T06:21:39.419Z,29.60
2022-08-17T06:24:31.523Z,29.80
2022-08-17T06:27:10.044Z,30.10
2022-08-17T06:30:05.990Z,30.50
2022-08-17T06:32:34.453Z,30.90
2022-08-17T06:35:02.912Z,31.30
2022-08-17T06:38:00.470Z,31.70
2022-08-17T06:40:51.231Z,32.10
2022-08-17T06:43:55.613Z,32.60
2022-08-17T06:46:53.035Z,32.80
2022-08-17T06:49:34.053Z,33.10
2022-08-17T06:52:45.607Z,33.50
2022-08-17T06:55:22.563Z,33.70
2022-08-17T06:57:53.494Z,34.00
2022-08-17T07:00:27.948Z,34.40
2022-08-17T07:03:06.145Z,34.60
2022-08-17T07:05:38.801Z,34.90
2022-08-17T07:08:18.124Z,35.10
2022-08-17T07:10:55.547Z,35.10
2022-08-17T07:13:38.130Z,35.00
2022-08-17T07:16:17.094Z,35.10
2022-08-17T07:18:44.713Z,35.30
2022-08-17T07:21:29.703Z,35.60
2022-08-17T07:24:26.240Z,35.80
2022-08-17T07:27:07.445Z,36.20
2022-08-17T07:29:41.623Z,36.50
2022-08-17T07:32:13.827Z,36.50
2022-08-17T07:34:59.870Z,37.00
2022-08-17T07:37:27.125Z,36.90
2022-08-17T07:40:15.428Z,36.70
2022-08-17T07:42:46.536Z,36.60
2022-08-17T07:45:15.081Z,36.60
2022-08-17T07:47:51.638Z,36.80
2022-08-17T07:50:29.410Z,36.80
2022-08-17T07:52:57.000Z,36.90
2022-08-17T07:55:30.918Z,36.80
2022-08-17T07:57:59.801Z,37.20
2022-08-17T08:00:32.501Z,37.20
2022-08-17T08:03:11.538Z,37.30
2022-08-17T08:05:52.763Z,37.50
2022-08-17T08:08:28.634Z,37.20
2022-08-17T08:11:03.175Z,37.70
2022-08-17T08:13:31.206Z,37.80
2022-08-17T08:16:19.574Z,37.80
2022-08-17T08:18:55.317Z,37.90
2022-08-17T08:21:28.321Z,37.80
2022-08-17T08:24:17.280Z,37.60
2022-08-17T08:26:54.141Z,37.70
2022-08-17T08:29:52.252Z,37.50
2022-08-17T08:32:47.689Z,37.90
2022-08-17T08:35:24.776Z,37.80
2022-08-17T08:38:10.830Z,38.20
2022-08-17T08:41:09.139Z,38.10
2022-08-17T08:43:36.465Z,38.10
2022-08-17T08:46:36.285Z,38.20
2022-08-17T08:49:18.395Z,38.10
2022-08-17T08:52:00.972Z,37.90
2022-08-17T08:54:37.668Z,37.60
2022-08-17T08:57:33.699Z,37.50
2022-08-17T09:00:20.300Z,37.20
2022-08-17T09:03:14.658Z,37.10
2022-08-17T09:05:56.959Z,36.80
2022-08-17T09:08:33.170Z,36.60
2022-08-17T09:11:14.022Z,36.30
2022-08-17T09:13:56.289Z,36.10
2022-08-17T09:16:36.746Z,35.90
2022-08-17T09:19:17.060Z,35.80
2022-08-17T09:21:51.798Z,35.70
2022-08-17T09:24:33.293Z,35.50
2022-08-17T09:27:11.392Z,35.40
2022-08-17T09:29:44.415Z,35.10
2022-08-17T09:32:33.074Z,34.90
2022-08-17T09:35:12.042Z,34.60
2022-08-17T09:37:57.856Z,34.20
2022-08-17T09:40:30.504Z,33.80
2022-08-17T09:43:18.889Z,33.50
2022-08-17T09:45:51.871Z,33.40
2022-08-17T09:48:32.926Z,33.10
2022-08-17T09:51:28.921Z,32.90
2022-08-17T09:54:09.516Z,32.80
2022-08-17T09:57:25.922Z,32.50
2022-08-17T10:00:15.984Z,32.30
2022-08-17T10:02:55.046Z,32.10
2022-08-17T10:05:43.394Z,31.80
2022-08-17T10:08:25.879Z,31.60
2022-08-17T10:11:15.768Z,31.40
2022-08-17T10:14:24.137Z,31.20
2022-08-17T10:17:20.659Z,31.00
2022-08-17T10:20:10.936Z,30.80
2022-08-17T10:22:53.373Z,30.70
2022-08-17T10:25:26.178Z,30.70
2022-08-17T10:28:06.838Z,30.50
2022-08-17T10:30:50.374Z,30.50
2022-08-17T10:33:40.359Z,30.40
2022-08-17T10:36:19.525Z,30.30
2022-08-17T10:38:48.329Z,30.30
2022-08-17T10:41:18.281Z,30.30
2022-08-17T10:54:26.513Z,30.20
2022-08-17T10:56:56.753Z,30.20
2022-08-17T10:59:36.521Z,30.20
2022-08-17T11:02:11.384Z,30.20
2022-08-17T11:04:57.095Z,30.20
2022-08-17T11:08:02.204Z,30.20
2022-08-17T11:11:03.486Z,30.20
2022-08-17T11:14:05.981Z,30.20
2022-08-17T11:16:53.360Z,30.20
2022-08-17T11:19:35.613Z,30.20
2022-08-17T11:22:16.421Z,30.20
2022-08-17T11:24:50.720Z,30.20
2022-08-17T11:27:28.944Z,30.20
2022-08-17T11:30:02.720Z,30.20
2022-08-17T11:32:35.139Z,30.20
2022-08-17T11:35:11.167Z,30.10
2022-08-17T11:37:56.989Z,30.10
2022-08-17T11:40:42.859Z,30.00
2022-08-17T11:43:42.894Z,30.00
2022-08-17T11:46:20.310Z,29.90
2022-08-17T11:48:53.005Z,29.90
2022-08-17T11:51:23.400Z,30.00
2022-08-17T11:53:50.548Z,29.90
2022-08-17T11:56:39.430Z,30.00
2022-08-17T11:59:31.812Z,30.00
2022-08-17T12:02:00.913Z,30.00
2022-08-17T12:04:34.356Z,30.00
2022-08-17T12:07:14.150Z,30.00
2022-08-17T12:09:45.468Z,30.00
2022-08-17T12:12:22.790Z,30.00
2022-08-17T12:15:10.218Z,30.00
2022-08-17T12:17:40.502Z,30.10
2022-08-17T12:20:42.659Z,30.10
2022-08-17T12:23:27.933Z,30.10
2022-08-17T12:26:19.918Z,30.20
2022-08-17T12:28:50.145Z,30.30
2022-08-17T12:31:27.142Z,30.20
2022-08-17T12:33:54.428Z,30.20
2022-08-17T12:36:27.032Z,30.10
2022-08-17T12:38:56.203Z,30.00
2022-08-17T12:41:40.557Z,29.90
2022-08-17T12:44:27.425Z,29.90
2022-08-17T12:47:21.570Z,29.80
2022-08-17T12:49:52.561Z,29.80
2022-08-17T12:52:19.914Z,29.80
2022-08-17T12:55:03.813Z,29.80
2022-08-17T12:57:39.395Z,29.80
2022-08-17T13:00:20.199Z,29.70
2022-08-17T13:03:14.843Z,29.70
2022-08-17T13:05:53.841Z,29.70
2022-08-17T13:08:34.838Z,29.70
2022-08-17T13:11:04.746Z,29.70
2022-08-17T13:13:35.246Z,29.70
2022-08-17T13:16:14.783Z,29.70
2022-08-17T13:18:45.212Z,29.60
2022-08-17T13:21:20.925Z,29.60
2022-08-17T13:24:04.466Z,29.60
2022-08-17T13:26:36.796Z,29.60
2022-08-17T13:29:16.666Z,29.60
2022-08-17T13:31:52.379Z,29.60
2022-08-17T13:34:24.035Z,29.60
2022-08-17T13:37:33.391Z,29.60
2022-08-17T13:40:09.367Z,29.60
2022-08-17T13:42:51.822Z,29.50
2022-08-17T13:45:36.291Z,29.50
2022-08-17T13:48:15.729Z,29.50
2022-08-17T13:50:52.097Z,29.50
2022-08-17T13:53:36.041Z,29.50
2022-08-17T13:56:33.344Z,29.50
2022-08-17T13:59:06.896Z,29.50
2022-08-17T14:01:52.784Z,29.50
2022-08-17T14:04:27.559Z,29.50
2022-08-17T14:06:54.938Z,29.40
2022-08-17T14:09:25.781Z,29.40
2022-08-17T14:11:54.623Z,29.40
2022-08-17T14:14:22.642Z,29.40
2022-08-17T14:16:51.292Z,29.30
2022-08-17T14:19:19.129Z,29.30
2022-08-17T14:21:47.210Z,29.30
2022-08-17T14:24:21.910Z,29.30
2022-08-17T14:26:51.087Z,29.30
2022-08-17T14:29:19.134Z,29.30
2022-08-17T14:31:53.313Z,29.30
2022-08-17T14:34:23.309Z,29.30
2022-08-17T14:36:51.033Z,29.30
2022-08-17T14:39:19.102Z,29.40
2022-08-17T14:41:47.095Z,29.40
2022-08-17T14:44:14.697Z,29.40
2022-08-17T14:46:43.300Z,29.30
2022-08-17T14:49:12.933Z,29.30
2022-08-17T14:51:43.766Z,29.30
2022-08-17T14:54:33.086Z,29.20
2022-08-17T14:57:02.932Z,29.20
2022-08-17T14:59:54.909Z,29.30
2022-08-17T15:02:27.960Z,29.30
2022-08-17T15:05:03.970Z,29.30
2022-08-17T15:07:31.628Z,29.30
2022-08-17T15:10:01.232Z,29.30
2022-08-17T15:12:33.349Z,29.30
2022-08-17T15:15:04.849Z,29.30
2022-08-17T15:17:55.000Z,29.30
2022-08-17T15:20:26.298Z,29.30
2022-08-17T15:22:53.922Z,29.30
2022-08-17T15:25:21.716Z,29.30
2022-08-17T15:27:49.146Z,29.30
2022-08-17T15:30:16.990Z,29.30
2022-08-17T15:32:51.053Z,29.30
2022-08-17T15:35:28.234Z,29.20
2022-08-17T15:37:58.764Z,29.20
2022-08-17T15:40:38.785Z,29.10
2022-08-17T15:43:14.240Z,29.00
2022-08-17T15:45:43.051Z,28.90
2022-08-17T15:48:10.532Z,28.70
2022-08-17T15:50:37.975Z,28.60
2022-08-17T15:53:05.454Z,28.60
2022-08-17T15:55:33.709Z,28.40
2022-08-17T15:58:01.024Z,28.30
2022-08-17T16:00:28.357Z,28.20
2022-08-17T16:03:46.741Z,28.20
2022-08-17T16:05:44.099Z,28.20
2022-08-17T16:08:18.511Z,28.20
2022-08-17T16:10:49.790Z,28.10
2022-08-17T16:13:18.952Z,28.10
2022-08-17T16:15:56.726Z,28.00
2022-08-17T16:18:29.755Z,28.00
2022-08-17T16:21:05.207Z,28.00
2022-08-17T16:23:32.504Z,28.00
2022-08-17T16:25:59.678Z,28.00
2022-08-17T16:28:35.717Z,28.00
2022-08-17T16:31:05.232Z,28.00
2022-08-17T16:33:35.634Z,28.00
2022-08-17T16:36:02.795Z,28.00
2022-08-17T16:38:30.248Z,27.90
2022-08-17T16:40:57.293Z,27.90
2022-08-17T16:43:24.381Z,27.90
2022-08-17T16:45:52.323Z,27.90
2022-08-17T16:48:19.419Z,27.90
2022-08-17T16:50:58.609Z,27.90
2022-08-17T16:53:31.434Z,27.80
2022-08-17T16:55:58.481Z,27.80
2022-08-17T16:58:25.510Z,27.80
2022-08-17T17:00:52.999Z,27.70
2022-08-17T17:03:25.870Z,27.70
2022-08-17T17:05:58.762Z,27.60
2022-08-17T17:08:45.723Z,27.60
2022-08-17T17:11:23.114Z,27.50
2022-08-17T17:13:59.527Z,27.50
2022-08-17T17:16:44.841Z,27.50
2022-08-17T17:19:37.088Z,27.50
2022-08-17T17:22:45.936Z,27.40
2022-08-17T17:25:31.692Z,27.40
2022-08-17T17:28:02.077Z,27.40
2022-08-17T17:30:56.637Z,27.40
2022-08-17T17:34:05.686Z,27.30
2022-08-17T17:36:36.030Z,27.30
2022-08-17T17:39:17.845Z,27.30
2022-08-17T17:41:47.850Z,27.20
2022-08-17T17:44:19.805Z,27.20
2022-08-17T17:46:58.699Z,27.20
2022-08-17T17:49:34.252Z,27.20
2022-08-17T17:52:15.626Z,27.10
2022-08-17T17:55:02.904Z,27.10
2022-08-17T17:57:30.119Z,27.10
2022-08-17T18:00:18.381Z,27.10
2022-08-17T18:03:03.694Z,27.00
2022-08-17T18:05:52.065Z,27.00
2022-08-17T18:08:32.207Z,26.90
2022-08-17T18:11:24.470Z,26.90
2022-08-17T18:14:12.716Z,26.80
2022-08-17T18:16:40.373Z,26.70
2022-08-17T18:19:15.927Z,26.60
2022-08-17T18:21:48.942Z,26.60
2022-08-17T18:24:38.592Z,26.50
2022-08-17T18:27:31.671Z,26.50
2022-08-17T18:30:05.754Z,26.40
2022-08-17T18:32:44.359Z,26.30
2022-08-17T18:35:11.543Z,26.20
2022-08-17T18:37:41.848Z,26.20
2022-08-17T18:40:36.655Z,26.10
2022-08-17T18:43:26.856Z,26.00
2022-08-17T18:45:56.966Z,26.00
2022-08-17T18:48:28.882Z,26.00
2022-08-17T18:51:04.127Z,25.90
2022-08-17T18:53:43.403Z,25.90
2022-08-17T18:56:22.661Z,25.90
2022-08-17T18:59:12.003Z,25.80
2022-08-17T19:02:09.973Z,25.80
2022-08-17T19:04:54.557Z,25.70
2022-08-17T19:07:21.905Z,25.70
2022-08-17T19:09:58.307Z,25.60
2022-08-17T19:12:49.319Z,25.50
2022-08-17T19:15:23.049Z,25.50
2022-08-17T19:18:02.433Z,25.40
2022-08-17T19:20:35.562Z,25.30
2022-08-17T19:23:10.489Z,25.20
2022-08-17T19:25:44.397Z,25.20
2022-08-17T19:28:23.701Z,25.10
2022-08-17T19:30:57.739Z,25.10
2022-08-17T19:33:25.842Z,25.00
2022-08-17T19:36:28.705Z,25.00
2022-08-17T19:39:20.999Z,24.90
2022-08-17T19:42:20.210Z,24.90
2022-08-17T19:45:07.942Z,24.80
2022-08-17T19:48:00.519Z,24.80
2022-08-17T19:50:29.911Z,24.80
2022-08-17T19:53:41.703Z,24.70
2022-08-17T19:56:22.701Z,24.60
2022-08-17T19:58:58.785Z,24.70
2022-08-17T20:01:47.613Z,24.60
2022-08-17T20:04:39.021Z,24.60
2022-08-17T20:07:29.206Z,24.60
2022-08-17T20:10:06.836Z,24.50
2022-08-17T20:12:38.105Z,24.50
2022-08-17T20:15:10.726Z,24.50
2022-08-17T20:17:46.256Z,24.40
2022-08-17T20:20:23.306Z,24.30
2022-08-17T20:22:57.921Z,24.30
2022-08-17T20:25:42.425Z,24.20
2022-08-17T20:28:29.033Z,24.20
2022-08-17T20:30:57.438Z,24.10
2022-08-17T20:33:36.034Z,24.10
2022-08-17T20:36:20.039Z,23.90
2022-08-17T20:38:54.694Z,23.90
2022-08-17T20:41:31.149Z,23.90
2022-08-17T20:43:58.147Z,23.90
2022-08-17T20:46:37.507Z,23.90
2022-08-17T20:49:26.063Z,23.80
2022-08-17T20:52:12.007Z,23.70
2022-08-17T20:54:54.424Z,23.70
2022-08-17T20:57:45.817Z,23.70
2022-08-17T21:00:33.086Z,23.60
2022-08-17T21:03:19.215Z,23.50
2022-08-17T21:06:00.331Z,23.50
2022-08-17T21:08:32.779Z,23.50
2022-08-17T21:11:16.279Z,23.50
2022-08-17T21:14:34.293Z,23.40
2022-08-17T21:17:07.242Z,23.40
2022-08-17T21:19:48.969Z,23.40
2022-08-17T21:22:33.275Z,23.40
2022-08-17T21:25:28.337Z,23.40
2022-08-17T21:28:02.206Z,23.40
2022-08-17T21:30:29.379Z,23.30
2022-08-17T21:33:21.499Z,23.30
2022-08-17T21:35:59.301Z,23.20
2022-08-17T21:38:57.947Z,23.20
2022-08-17T21:41:31.195Z,23.10
2022-08-17T21:44:04.910Z,23.00
2022-08-17T21:46:37.409Z,23.00
2022-08-17T21:49:13.510Z,23.00
2022-08-17T21:51:51.091Z,23.00
2022-08-17T21:54:21.120Z,23.00
2022-08-17T21:56:48.985Z,22.90
2022-08-17T21:59:19.039Z,22.90
2022-08-17T22:01:58.441Z,22.80
2022-08-17T22:04:34.607Z,22.80
2022-08-17T22:07:05.336Z,22.80
2022-08-17T22:09:55.116Z,22.80
2022-08-17T22:12:23.629Z,22.80
2022-08-17T22:15:01.487Z,22.70
2022-08-17T22:17:37.432Z,22.70
2022-08-17T22:20:13.127Z,22.60
2022-08-17T22:23:00.150Z,22.60
2022-08-17T22:25:28.522Z,22.50
2022-08-17T22:27:59.101Z,22.50
2022-08-17T22:30:41.193Z,22.50
2022-08-17T22:33:33.576Z,22.50
2022-08-17T22:36:12.055Z,22.50
2022-08-17T22:38:41.499Z,22.60
2022-08-17T22:41:23.096Z,22.50
2022-08-17T22:43:52.050Z,22.50
2022-08-17T22:46:22.307Z,22.40
2022-08-17T22:48:53.790Z,22.40
2022-08-17T22:51:23.952Z,22.40
2022-08-17T22:53:54.930Z,22.30
2022-08-17T22:56:25.032Z,22.30
2022-08-17T22:58:59.227Z,22.30
2022-08-17T23:01:32.700Z,22.30
2022-08-17T23:04:03.098Z,22.30
2022-08-17T23:06:32.137Z,22.30
2022-08-17T23:08:59.943Z,22.20
2022-08-17T23:11:36.933Z,22.10
2022-08-17T23:14:16.667Z,22.00
2022-08-17T23:16:43.835Z,22.00
2022-08-17T23:19:14.088Z,21.90
2022-08-17T23:21:42.621Z,21.90
2022-08-17T23:24:10.948Z,22.00
2022-08-17T23:26:38.137Z,21.80
2022-08-17T23:29:05.925Z,21.80
2022-08-17T23:31:34.257Z,21.80
2022-08-17T23:34:03.135Z,21.80
2022-08-17T23:36:31.052Z,21.80
2022-08-17T23:38:58.297Z,21.80
2022-08-17T23:41:29.107Z,21.80
2022-08-17T23:43:56.350Z,21.80
2022-08-17T23:46:23.540Z,21.80
2022-08-17T23:48:51.313Z,21.70
2022-08-17T23:51:23.630Z,21.50
2022-08-17T23:53:55.756Z,21.50
2022-08-17T23:56:22.994Z,21.40
2022-08-17T23:58:51.459Z,21.40
